Aachen, Germany

9:05 PM CEST on September 02, 2014 (GMT +0200)
Hitfeld | Change Station
CLOSE
Current Station
Personal Weather Station
Location: Aachen, NORDRHEIN-WESTFALEN
Elevation: 866 ft
Nearby Weather Stations

Elev 866 ft 50.74 °N, 6.13 °E | Updated 8 seconds ago

Mostly Cloudy
Mostly Cloudy
61.5 °F
Feels Like 61.5 °F
N
0.0
Wind Variable Wind from ENE
Gusts 2.0 mph

Today
High -- | Low -- °F
--% Chance of Precip.
Yesterday
High -- | Low -- °F
Precip. -- in
6:50 AM 8:18 PM
First Quarter, 54% visible
Pressure 30.21 in
Visibility 4.3 miles
Clouds Mostly Cloudy 2100 ft
Dew Point 58 °F
Humidity 88%
Rainfall 0.00 in
Snow Depth Not available.
UV 0.0 out of 12
Pollen Not available.
Air Quality Not available.
Flu Activity Not available.
METAR EHBK 021855Z AUTO 05008KT 7000 BKN021 18/15 Q1023 NOSIG

More Conditions Fewer Conditions

Pressure 30.21 in
Visibility 4.3 miles
Clouds Mostly Cloudy 2100 ft
Dew Point 58 °F
Humidity 88%
Rainfall 0.00 in
Snow Depth Not available.
UV 0.0 out of 12
Pollen Not available.
Air Quality Not available.
Flu Activity Not available.
METAR EHBK 021855Z AUTO 05008KT 7000 BKN021 18/15 Q1023 NOSIG

More Conditions Fewer Conditions

10-Day Weather Forecast

Almanac

Astronomy

Sep. 02, 2014 Rise Set
Actual Time 6:50 AM CEST 8:18 PM CEST
Civil Twilight 6:16 AM CEST 8:53 PM CEST
Nautical Twilight 5:34 AM CEST 9:34 PM CEST
Astronomical Twilight 4:48 AM CEST 10:20 PM CEST
Moon 3:04 PM CEST No Moon Set
Length of Visible Light 14h 36m
Length of Day
13h 28m
Tomorrow will be 3m 45s shorter.
First Quarter, 54% of the Moon is Illuminated
Today
First Quarter
Sep 8
Full
Sep 15
Last Quarter
Sep 24
New
Oct 1
First Quarter

Today's Extremes

Country Highs Country Lows

Community

WunderPhotos

Upload Photos

1,749,745 photos uploaded!

WunderBlogs® & News

By Dr. Jeff Masters
Director of Meteorology, Weather Underground
By Kari Strenfel
Meteorologist, Weather Underground
By Christopher C. Burt
Weather Historian, Weather Underground
September 2, 2014
September 2, 2014
September 2, 2014

Nearby

Snow Depth

Not available.

Earthquake Activity

City Distance Mag. Time & Date
No recent earthquake activity has been reported nearby.
Minimum magnitude displayed is 2.5.

Coastal Water Temperatures

Place Temperature
No Stations Reporting

Nearby Weather Stations